Time;durP1;ratioP1;P1;durP2;ratioP2;P2;SDS_P1;SDS_P2;PMS_P1;PMS_P2;Temp;Humidity;BMP_temperature;BMP_pressure;BME280_temperature;BME280_humidity;BME280_pressure;Samples;Min_cycle;Max_cycle;Signal;HPM_P1;HPM_P2
2021/05/30 00:00:34;;;;;;;0.23;0.23;;;11.60;99.90;;;;;;4993128;28;20195;-86
2021/05/30 00:03:00;;;;;;;0.63;0.63;;;11.40;99.90;;;;;;4994322;28;20242;-86
2021/05/30 00:05:25;;;;;;;0.40;0.40;;;11.40;99.90;;;;;;4994022;28;20294;-86
2021/05/30 00:07:54;;;;;;;0.33;0.33;;;11.40;99.90;;;;;;4992837;28;20191;-86
2021/05/30 00:10:20;;;;;;;1.53;0.50;;;11.30;99.90;;;;;;4993050;28;20668;-86
2021/05/30 00:12:46;;;;;;;0.70;0.70;;;11.30;99.90;;;;;;4992308;28;20215;-86
2021/05/30 00:15:12;;;;;;;0.10;0.10;;;11.30;99.90;;;;;;4992506;28;20250;-86
2021/05/30 00:17:38;;;;;;;0.23;0.23;;;11.30;99.90;;;;;;4992550;28;20185;-86
2021/05/30 00:20:06;;;;;;;0.57;0.53;;;11.40;99.90;;;;;;4993650;28;20674;-86
2021/05/30 00:22:31;;;;;;;1.27;0.47;;;11.30;99.90;;;;;;4993548;28;20242;-85
2021/05/30 00:24:57;;;;;;;0.67;0.20;;;11.30;99.90;;;;;;4985414;28;20215;-86
2021/05/30 00:27:22;;;;;;;0.20;0.20;;;11.30;99.90;;;;;;4990326;28;20198;-86
2021/05/30 00:29:49;;;;;;;0.20;0.20;;;11.30;99.90;;;;;;4993230;28;20183;-86
2021/05/30 00:32:15;;;;;;;0.10;0.10;;;11.30;99.90;;;;;;4989516;28;20250;-86
2021/05/30 00:34:40;;;;;;;0.70;0.60;;;11.30;99.90;;;;;;4990898;28;20199;-85
2021/05/30 00:37:06;;;;;;;0.10;0.10;;;11.30;99.90;;;;;;4991151;28;20188;-86
2021/05/30 00:39:31;;;;;;;0.53;0.53;;;11.30;99.90;;;;;;4992510;28;20300;-86
2021/05/30 00:41:57;;;;;;;0.33;0.33;;;11.20;99.90;;;;;;4992015;28;20198;-86
2021/05/30 00:44:25;;;;;;;1.53;0.53;;;11.20;99.90;;;;;;4991522;28;20211;-85
2021/05/30 00:46:52;;;;;;;0.60;0.60;;;11.10;99.90;;;;;;4992675;28;20191;-87
2021/05/30 00:49:18;;;;;;;0.10;0.10;;;11.20;99.90;;;;;;4992174;28;20176;-86
2021/05/30 00:51:44;;;;;;;0.30;0.30;;;11.10;99.90;;;;;;4992923;28;20214;-86
2021/05/30 00:54:10;;;;;;;0.50;0.50;;;11.10;99.90;;;;;;4991969;28;20262;-86
2021/05/30 00:56:36;;;;;;;0.30;0.30;;;11.10;99.90;;;;;;4991570;28;20199;-86
2021/05/30 00:59:04;;;;;;;0.43;0.43;;;11.10;99.90;;;;;;4993238;28;20180;-86
2021/05/30 01:01:30;;;;;;;0.50;0.50;;;11.00;99.90;;;;;;4991761;28;20194;-86
2021/05/30 01:03:55;;;;;;;0.20;0.20;;;11.00;99.90;;;;;;4993261;28;20188;-87
2021/05/30 01:06:24;;;;;;;0.20;0.20;;;10.90;99.90;;;;;;4980568;28;20215;-86
2021/05/30 01:08:49;;;;;;;0.20;0.20;;;10.90;99.90;;;;;;4991740;28;20627;-86
2021/05/30 01:11:16;;;;;;;2.57;0.43;;;10.90;99.90;;;;;;4992888;28;20214;-86
2021/05/30 01:13:44;;;;;;;1.33;0.80;;;10.90;99.90;;;;;;4991584;28;20234;-85
2021/05/30 01:16:11;;;;;;;0.33;0.33;;;10.90;99.90;;;;;;4991446;28;20183;-85
2021/05/30 01:18:37;;;;;;;0.67;0.67;;;10.80;99.90;;;;;;4993156;28;20188;-86
2021/05/30 01:21:03;;;;;;;0.50;0.40;;;10.80;99.90;;;;;;4992664;28;20267;-86
2021/05/30 01:23:29;;;;;;;0.40;0.40;;;10.80;99.90;;;;;;4992990;28;20745;-86
2021/05/30 01:25:54;;;;;;;0.30;0.30;;;10.80;99.90;;;;;;4988385;28;20243;-86
2021/05/30 01:28:20;;;;;;;0.20;0.20;;;10.80;99.90;;;;;;4983382;28;20681;-86
2021/05/30 01:30:46;;;;;;;0.20;0.20;;;10.80;99.90;;;;;;4992926;28;20195;-85
2021/05/30 01:33:12;;;;;;;0.60;0.43;;;10.80;99.90;;;;;;4990808;28;20261;-85
2021/05/30 01:35:39;;;;;;;0.30;0.30;;;10.90;99.90;;;;;;4987412;28;20214;-86
2021/05/30 01:38:05;;;;;;;0.43;0.43;;;10.90;99.90;;;;;;4991320;28;20736;-86
2021/05/30 01:40:31;;;;;;;0.40;0.40;;;11.00;99.90;;;;;;4991508;28;20674;-86
2021/05/30 01:42:57;;;;;;;0.27;0.27;;;11.10;99.90;;;;;;4992581;28;20191;-86
2021/05/30 01:45:28;;;;;;;0.23;0.23;;;11.10;99.90;;;;;;4991283;28;20680;-87
2021/05/30 01:47:54;;;;;;;0.20;0.20;;;11.10;99.90;;;;;;4990301;28;20206;-86
2021/05/30 01:50:22;;;;;;;0.10;0.10;;;11.10;99.90;;;;;;4990630;28;20180;-86
2021/05/30 01:52:49;;;;;;;0.70;0.70;;;11.20;99.90;;;;;;4992465;28;20219;-86
2021/05/30 01:57:49;;;;;;;0.30;0.30;;;11.20;99.90;;;;;;4994148;28;20197;-86
2021/05/30 02:00:16;;;;;;;1.13;0.47;;;11.20;99.90;;;;;;4995371;28;20190;-86
2021/05/30 02:02:48;;;;;;;0.63;0.57;;;11.20;99.90;;;;;;4985582;28;20206;-86
2021/05/30 02:05:14;;;;;;;0.40;0.40;;;11.20;99.90;;;;;;4994858;28;20247;-86
2021/05/30 02:07:41;;;;;;;0.20;0.20;;;11.30;99.90;;;;;;4996206;28;20615;-86
2021/05/30 02:10:10;;;;;;;0.20;0.20;;;11.10;99.90;;;;;;4995085;28;20243;-86
2021/05/30 02:12:36;;;;;;;0.30;0.10;;;11.10;99.90;;;;;;4995648;28;20247;-86
2021/05/30 02:15:04;;;;;;;0.43;0.43;;;11.20;99.90;;;;;;4994841;28;20262;-86
2021/05/30 02:17:30;;;;;;;0.77;0.77;;;11.20;99.90;;;;;;4995027;28;20202;-86
2021/05/30 02:19:57;;;;;;;0.33;0.33;;;11.20;99.90;;;;;;4995044;28;20199;-85
2021/05/30 02:22:23;;;;;;;0.30;0.30;;;11.00;99.90;;;;;;4994686;28;20271;-86
2021/05/30 02:24:48;;;;;;;0.27;0.27;;;10.90;99.90;;;;;;4994456;28;20299;-86
2021/05/30 02:27:14;;;;;;;0.80;0.30;;;11.00;99.90;;;;;;4994522;28;20270;-86
2021/05/30 02:29:42;;;;;;;0.70;0.40;;;11.00;99.90;;;;;;4995967;28;20184;-86
2021/05/30 02:32:10;;;;;;;0.33;0.33;;;11.00;99.90;;;;;;4994526;28;20252;-86
2021/05/30 02:34:38;;;;;;;1.23;0.40;;;11.10;99.90;;;;;;4990983;28;20244;-87
2021/05/30 02:37:05;;;;;;;0.10;0.10;;;11.10;99.90;;;;;;4980791;28;20203;-86
2021/05/30 02:39:31;;;;;;;0.67;0.37;;;11.20;99.90;;;;;;4994805;28;20178;-86
2021/05/30 02:41:57;;;;;;;1.07;0.40;;;11.10;99.90;;;;;;4995357;28;20184;-86
2021/05/30 02:44:23;;;;;;;0.30;0.20;;;11.00;99.90;;;;;;4994597;28;20203;-86
2021/05/30 02:46:48;;;;;;;0.30;0.30;;;11.10;99.90;;;;;;4990354;28;20188;-86
2021/05/30 02:49:14;;;;;;;0.63;0.63;;;10.90;99.90;;;;;;4986520;28;20196;-86
2021/05/30 02:51:40;;;;;;;0.20;0.20;;;11.00;99.90;;;;;;4994240;28;20187;-87
2021/05/30 02:54:05;;;;;;;0.17;0.17;;;11.00;99.90;;;;;;4994723;28;20900;-86
2021/05/30 02:56:31;;;;;;;0.37;0.37;;;10.90;99.90;;;;;;4996495;28;20567;-85
2021/05/30 02:58:56;;;;;;;0.20;0.20;;;10.90;99.90;;;;;;4995937;28;20187;-86
2021/05/30 03:01:22;;;;;;;0.57;0.50;;;10.90;99.90;;;;;;4995692;28;20179;-86
2021/05/30 03:03:49;;;;;;;0.30;0.30;;;10.90;99.90;;;;;;4994269;28;20186;-86
2021/05/30 03:06:15;;;;;;;0.40;0.40;;;10.80;99.90;;;;;;4993994;28;20191;-86
2021/05/30 03:08:40;;;;;;;0.10;0.10;;;10.80;99.90;;;;;;5002675;28;20183;-86
2021/05/30 03:11:06;;;;;;;0.10;0.10;;;10.90;99.90;;;;;;4997716;28;20219;-86
2021/05/30 03:13:40;;;;;;;2.00;0.40;;;10.90;99.90;;;;;;4995296;28;20231;-86
2021/05/30 03:16:05;;;;;;;0.57;0.20;;;10.90;99.90;;;;;;4990622;28;20204;-86
2021/05/30 03:18:31;;;;;;;0.20;0.20;;;10.90;99.90;;;;;;4987378;28;20183;-86
2021/05/30 03:20:56;;;;;;;0.40;0.40;;;10.80;99.90;;;;;;4993967;28;20196;-87
2021/05/30 03:23:22;;;;;;;0.30;0.30;;;10.90;99.90;;;;;;4993017;28;20190;-86
2021/05/30 03:25:47;;;;;;;0.40;0.40;;;10.90;99.90;;;;;;4993830;28;20210;-86
2021/05/30 03:28:13;;;;;;;0.40;0.40;;;10.80;99.90;;;;;;4994984;28;20336;-87
2021/05/30 03:30:38;;;;;;;0.30;0.30;;;10.90;99.90;;;;;;4985911;28;20270;-87
2021/05/30 03:33:04;;;;;;;0.83;0.20;;;10.90;99.90;;;;;;4993647;28;20204;-86
2021/05/30 03:35:30;;;;;;;1.33;0.80;;;10.70;99.90;;;;;;4993520;28;20203;-86
2021/05/30 03:37:57;;;;;;;0.57;0.37;;;10.70;99.90;;;;;;4994624;28;20195;-87
2021/05/30 03:40:28;;;;;;;0.47;0.47;;;10.70;99.90;;;;;;4993443;28;20180;-86
2021/05/30 03:42:55;;;;;;;0.43;0.43;;;11.20;99.90;;;;;;4994733;28;20179;-86
2021/05/30 03:45:21;;;;;;;1.40;0.77;;;12.20;99.90;;;;;;4993342;28;20579;-86
2021/05/30 03:47:48;;;;;;;0.43;0.43;;;13.30;99.90;;;;;;4993205;28;20567;-87
2021/05/30 03:50:14;;;;;;;0.60;0.60;;;14.30;99.90;;;;;;4994259;28;20200;-86
2021/05/30 03:52:40;;;;;;;0.57;0.30;;;15.20;99.90;;;;;;4993213;28;20224;-86
2021/05/30 03:55:07;;;;;;;0.23;0.23;;;15.90;99.90;;;;;;4993258;28;20290;-86
2021/05/30 03:57:34;;;;;;;0.50;0.23;;;16.80;99.90;;;;;;4993179;28;20190;-86
2021/05/30 04:00:01;;;;;;;0.23;0.23;;;17.40;99.90;;;;;;4993277;28;20624;-86
2021/05/30 04:02:26;;;;;;;0.73;0.73;;;17.50;99.90;;;;;;4994227;28;20190;-86
2021/05/30 04:04:52;;;;;;;0.80;0.80;;;17.70;99.90;;;;;;4992876;28;20222;-86
2021/05/30 04:07:17;;;;;;;0.73;0.47;;;18.50;99.90;;;;;;4992348;28;20212;-87
2021/05/30 04:09:43;;;;;;;0.30;0.30;;;19.20;99.90;;;;;;4990569;28;20733;-86
2021/05/30 04:12:09;;;;;;;0.40;0.40;;;19.20;99.90;;;;;;4989434;28;20737;-86
2021/05/30 04:14:35;;;;;;;0.40;0.40;;;18.70;99.90;;;;;;4978881;28;20215;-86
2021/05/30 04:17:00;;;;;;;0.10;0.10;;;19.30;99.90;;;;;;4992892;28;20186;-86
2021/05/30 04:19:26;;;;;;;0.97;0.50;;;18.50;99.90;;;;;;4980894;28;20192;-87
2021/05/30 04:21:51;;;;;;;0.67;0.40;;;17.30;99.90;;;;;;4993890;28;20180;-86
2021/05/30 04:24:17;;;;;;;0.20;0.20;;;15.90;99.90;;;;;;4992780;28;20214;-86
2021/05/30 04:26:43;;;;;;;0.60;0.40;;;14.80;99.90;;;;;;4992778;28;20225;-86
2021/05/30 04:29:09;;;;;;;1.13;0.50;;;14.50;99.90;;;;;;4992400;28;20287;-86
2021/05/30 04:31:34;;;;;;;0.37;0.37;;;14.10;99.90;;;;;;4991891;28;20242;-87
2021/05/30 04:34:00;;;;;;;1.40;1.20;;;13.70;99.90;;;;;;4993638;28;20214;-86
2021/05/30 04:36:26;;;;;;;0.87;0.50;;;13.40;99.90;;;;;;4993700;28;20209;-86
2021/05/30 04:38:51;;;;;;;0.70;0.70;;;13.10;99.90;;;;;;4992270;28;20210;-86
2021/05/30 04:41:17;;;;;;;0.50;0.50;;;12.80;99.90;;;;;;4992296;28;20275;-86
2021/05/30 04:43:42;;;;;;;1.67;0.83;;;12.70;99.90;;;;;;4993560;28;20194;-86
2021/05/30 04:46:08;;;;;;;0.53;0.50;;;12.60;99.90;;;;;;4993354;28;20223;-86
2021/05/30 04:48:33;;;;;;;0.83;0.27;;;12.60;99.90;;;;;;4989353;28;20255;-86
2021/05/30 04:51:07;;;;;;;0.50;0.50;;;12.50;99.90;;;;;;4993501;28;20179;-86
2021/05/30 04:53:36;;;;;;;0.50;0.50;;;12.50;99.90;;;;;;5004453;28;20242;-86
2021/05/30 04:56:04;;;;;;;0.20;0.20;;;12.50;99.90;;;;;;4992452;28;20242;-87
2021/05/30 04:58:30;;;;;;;0.93;0.60;;;12.60;99.90;;;;;;4993308;28;20182;-86
2021/05/30 05:00:55;;;;;;;1.47;1.37;;;12.60;99.90;;;;;;4985184;28;20235;-86
2021/05/30 05:03:21;;;;;;;0.43;0.40;;;12.60;99.90;;;;;;4987558;28;20219;-87
2021/05/30 05:05:50;;;;;;;0.40;0.37;;;12.40;99.90;;;;;;4992031;28;20730;-86
2021/05/30 05:08:16;;;;;;;1.20;0.60;;;12.40;99.90;;;;;;4991943;28;20194;-86
2021/05/30 05:10:41;;;;;;;0.53;0.53;;;12.50;99.90;;;;;;4992246;28;20195;-87
2021/05/30 05:13:07;;;;;;;0.13;0.13;;;12.50;99.90;;;;;;4988101;28;20213;-87
2021/05/30 05:15:32;;;;;;;0.83;0.67;;;12.50;99.90;;;;;;4991739;28;20294;-86
2021/05/30 05:18:16;;;;;;;0.47;0.47;;;12.50;99.90;;;;;;4979205;28;20191;-86
2021/05/30 05:20:42;;;;;;;0.47;0.47;;;12.50;99.90;;;;;;4990848;28;20691;-86
2021/05/30 05:23:10;;;;;;;0.50;0.50;;;12.60;99.90;;;;;;4979987;28;20192;-86
2021/05/30 05:25:36;;;;;;;0.30;0.30;;;12.70;99.90;;;;;;4988049;28;20211;-86
2021/05/30 05:28:03;;;;;;;1.20;0.83;;;12.70;99.90;;;;;;4991962;28;20253;-87
2021/05/30 05:30:29;;;;;;;0.40;0.37;;;12.70;99.90;;;;;;4991760;28;20188;-86
2021/05/30 05:33:06;;;;;;;1.50;0.50;;;12.80;99.90;;;;;;4990620;28;20265;-86
2021/05/30 05:35:31;;;;;;;0.97;0.97;;;13.00;99.90;;;;;;4987569;28;20217;-85
2021/05/30 05:37:58;;;;;;;1.20;0.87;;;13.00;99.90;;;;;;4982656;28;20190;-86
2021/05/30 05:40:26;;;;;;;1.53;0.60;;;13.00;99.90;;;;;;4996266;28;20195;-87
2021/05/30 05:42:52;;;;;;;0.63;0.50;;;13.10;99.90;;;;;;4983356;28;20223;-87
2021/05/30 05:45:19;;;;;;;0.63;0.63;;;13.10;99.90;;;;;;4986885;28;20638;-87
2021/05/30 05:47:45;;;;;;;0.40;0.40;;;13.30;99.90;;;;;;4988052;28;20188;-87
2021/05/30 05:50:12;;;;;;;0.70;0.70;;;13.40;99.90;;;;;;4991387;28;20248;-85
2021/05/30 05:52:38;;;;;;;0.10;0.10;;;13.70;99.90;;;;;;4986425;28;20587;-85
2021/05/30 05:55:06;;;;;;;0.50;0.50;;;13.60;99.90;;;;;;4985722;28;20618;-86
2021/05/30 05:57:51;;;;;;;0.30;0.30;;;13.50;99.90;;;;;;4992513;28;20190;-85
2021/05/30 06:00:19;;;;;;;0.13;0.13;;;13.90;99.90;;;;;;4983770;28;20226;-84
2021/05/30 06:02:47;;;;;;;0.40;0.40;;;14.10;99.90;;;;;;4990380;28;20197;-83
2021/05/30 06:05:16;;;;;;;0.47;0.47;;;14.30;99.90;;;;;;4989771;28;20220;-86
2021/05/30 06:07:42;;;;;;;0.50;0.50;;;14.20;99.90;;;;;;4981233;28;20198;-85
2021/05/30 06:10:08;;;;;;;0.23;0.23;;;14.00;99.90;;;;;;5015504;23;20571;-83
2021/05/30 06:12:33;;;;;;;0.20;0.20;;;14.30;99.90;;;;;;5019826;28;20188;-83
2021/05/30 06:14:59;;;;;;;2.60;0.60;;;14.50;99.90;;;;;;5023216;28;20262;-83
2021/05/30 06:17:24;;;;;;;0.30;0.30;;;14.60;99.90;;;;;;5029270;28;20178;-82
2021/05/30 06:19:50;;;;;;;0.50;0.50;;;14.60;99.90;;;;;;5029144;28;20612;-83
2021/05/30 06:22:18;;;;;;;2.47;0.70;;;14.60;99.90;;;;;;5029654;28;20202;-83
2021/05/30 06:24:46;;;;;;;1.37;0.80;;;14.70;99.90;;;;;;5028173;28;20192;-83
2021/05/30 06:27:12;;;;;;;0.60;0.60;;;14.80;99.90;;;;;;5029379;28;20187;-83
2021/05/30 06:29:38;;;;;;;0.70;0.70;;;14.90;99.90;;;;;;5030371;28;20653;-84
2021/05/30 06:32:04;;;;;;;0.40;0.40;;;14.70;99.90;;;;;;5028677;28;20215;-83
2021/05/30 06:34:31;;;;;;;0.40;0.40;;;15.00;99.90;;;;;;5030182;28;20237;-83
2021/05/30 06:36:57;;;;;;;0.30;0.30;;;15.10;99.90;;;;;;5028405;28;20219;-81
2021/05/30 06:39:23;;;;;;;0.30;0.30;;;15.10;99.90;;;;;;5030090;28;20213;-81
2021/05/30 06:41:50;;;;;;;2.30;0.30;;;15.30;99.90;;;;;;5033114;28;20270;-78
2021/05/30 06:44:17;;;;;;;0.30;0.30;;;15.10;99.90;;;;;;5031497;28;20191;-81
2021/05/30 06:46:42;;;;;;;0.30;0.30;;;15.10;99.90;;;;;;5036927;28;20187;-81
2021/05/30 06:49:08;;;;;;;0.80;0.43;;;15.30;99.90;;;;;;5035379;28;20191;-81
2021/05/30 06:51:33;;;;;;;0.33;0.30;;;15.50;99.90;;;;;;5038984;28;20211;-80
2021/05/30 06:54:01;;;;;;;1.27;0.63;;;15.40;99.90;;;;;;5029875;28;20557;-81
2021/05/30 06:56:27;;;;;;;1.60;0.67;;;15.20;99.90;;;;;;5035547;28;20181;-81
2021/05/30 06:58:53;;;;;;;0.80;0.80;;;15.30;99.90;;;;;;5035528;28;20599;-81
2021/05/30 07:01:20;;;;;;;0.83;0.60;;;15.30;99.90;;;;;;5051880;28;20216;-81
2021/05/30 07:03:47;;;;;;;0.83;0.50;;;15.50;99.90;;;;;;5038558;28;20192;-81
2021/05/30 07:06:13;;;;;;;0.30;0.30;;;15.40;99.90;;;;;;5045580;28;20184;-81
2021/05/30 07:08:39;;;;;;;0.60;0.40;;;15.70;99.90;;;;;;5035268;28;20732;-81
2021/05/30 07:11:05;;;;;;;0.37;0.37;;;16.10;99.90;;;;;;5045829;28;20253;-81
2021/05/30 07:13:31;;;;;;;0.40;0.40;;;16.20;99.90;;;;;;5035259;28;20229;-81
2021/05/30 07:15:57;;;;;;;0.97;0.80;;;16.20;99.90;;;;;;5033599;28;20182;-80
2021/05/30 07:18:23;;;;;;;0.60;0.60;;;15.60;99.90;;;;;;5034521;28;20185;-80
2021/05/30 07:20:51;;;;;;;1.33;0.67;;;16.00;99.90;;;;;;5026658;28;20704;-80
2021/05/30 07:23:18;;;;;;;0.60;0.60;;;16.00;99.90;;;;;;5023045;28;20268;-81
2021/05/30 07:25:43;;;;;;;0.80;0.53;;;15.90;99.90;;;;;;5037023;28;20265;-81
2021/05/30 07:28:09;;;;;;;0.20;0.20;;;16.20;99.90;;;;;;5034665;28;20278;-79
2021/05/30 07:30:35;;;;;;;0.40;0.27;;;16.20;99.90;;;;;;5037790;28;20214;-80
2021/05/30 07:33:02;;;;;;;0.40;0.40;;;16.40;99.90;;;;;;5035293;28;20212;-81
2021/05/30 07:35:29;;;;;;;0.40;0.40;;;16.30;99.90;;;;;;5034974;28;20196;-80
2021/05/30 07:37:55;;;;;;;1.50;0.80;;;16.30;99.90;;;;;;5041586;28;20189;-81
2021/05/30 07:40:22;;;;;;;1.10;0.63;;;16.20;99.90;;;;;;5047112;28;20231;-81
2021/05/30 07:42:47;;;;;;;1.30;0.50;;;16.30;99.90;;;;;;5052989;28;20200;-82
2021/05/30 07:45:14;;;;;;;0.60;0.47;;;16.50;99.90;;;;;;5033373;28;20208;-82
2021/05/30 07:47:40;;;;;;;1.20;0.60;;;16.50;99.90;;;;;;5033841;28;20185;-82
2021/05/30 07:50:08;;;;;;;1.13;0.37;;;16.50;99.90;;;;;;5032771;28;20210;-82
2021/05/30 07:52:35;;;;;;;0.30;0.30;;;16.70;99.90;;;;;;5033020;28;20223;-81
2021/05/30 07:55:00;;;;;;;0.47;0.37;;;16.50;99.90;;;;;;5032535;28;20196;-82
2021/05/30 07:57:26;;;;;;;0.67;0.67;;;16.70;99.90;;;;;;5033309;28;20181;-82
2021/05/30 07:59:51;;;;;;;0.30;0.30;;;17.10;99.90;;;;;;5050221;28;20381;-79
2021/05/30 08:02:18;;;;;;;0.17;0.17;;;17.20;99.90;;;;;;5034463;28;20224;-81
2021/05/30 08:04:43;;;;;;;0.87;0.87;;;17.30;99.90;;;;;;5032625;28;20204;-81
2021/05/30 08:07:09;;;;;;;3.93;1.30;;;17.20;99.90;;;;;;5030621;28;20740;-81
2021/05/30 08:09:35;;;;;;;0.37;0.30;;;17.20;99.90;;;;;;5022068;28;20186;-82
2021/05/30 08:12:01;;;;;;;0.73;0.73;;;16.80;99.90;;;;;;5031403;28;20237;-82
2021/05/30 08:14:26;;;;;;;0.43;0.43;;;16.80;99.90;;;;;;5029249;28;20218;-82
2021/05/30 08:16:52;;;;;;;0.60;0.47;;;16.90;99.90;;;;;;5028170;28;20210;-82
2021/05/30 08:19:17;;;;;;;0.47;0.40;;;17.40;99.90;;;;;;5031373;28;20182;-82
2021/05/30 08:21:44;;;;;;;1.30;0.53;;;17.90;99.90;;;;;;5030703;28;20260;-80
2021/05/30 08:24:10;;;;;;;0.90;0.50;;;18.30;99.90;;;;;;5033888;28;20190;-80
2021/05/30 08:26:36;;;;;;;0.43;0.43;;;18.70;99.90;;;;;;5036114;28;20193;-82
2021/05/30 08:29:02;;;;;;;1.30;0.40;;;18.50;99.90;;;;;;5033161;28;20201;-82
2021/05/30 08:31:27;;;;;;;0.67;0.67;;;18.60;99.90;;;;;;5027951;28;20210;-81
2021/05/30 08:33:53;;;;;;;0.33;0.33;;;18.70;99.90;;;;;;5030293;28;20214;-81
2021/05/30 08:36:19;;;;;;;0.30;0.30;;;18.60;99.90;;;;;;5029822;28;20187;-82
2021/05/30 08:38:45;;;;;;;0.33;0.33;;;18.10;99.90;;;;;;5032570;28;20186;-82
2021/05/30 08:41:11;;;;;;;0.60;0.60;;;17.90;99.90;;;;;;5033685;28;20197;-82
2021/05/30 08:43:37;;;;;;;0.57;0.53;;;18.50;99.90;;;;;;5033259;28;20221;-82
2021/05/30 08:46:03;;;;;;;0.30;0.30;;;19.00;99.90;;;;;;5032042;28;20186;-81
2021/05/30 08:48:29;;;;;;;2.90;0.47;;;19.20;99.90;;;;;;5044990;28;20291;-81
2021/05/30 08:51:03;;;;;;;0.20;0.20;;;19.40;99.90;;;;;;5028737;28;20222;-80
2021/05/30 08:53:37;;;;;;;0.40;0.40;;;19.50;99.90;;;;;;5034698;28;20210;-79
2021/05/30 08:56:04;;;;;;;0.70;0.70;;;19.60;99.90;;;;;;5032684;28;20185;-80
2021/05/30 08:58:37;;;;;;;0.87;0.87;;;19.30;99.90;;;;;;5034210;28;20186;-81
2021/05/30 09:01:11;;;;;;;1.10;1.00;;;18.60;99.90;;;;;;5031041;28;20687;-82
2021/05/30 09:03:55;;;;;;;0.83;0.63;;;18.60;99.90;;;;;;5031678;28;20191;-82
2021/05/30 09:06:22;;;;;;;0.53;0.53;;;19.00;99.90;;;;;;5046289;28;20524;-81
2021/05/30 09:08:52;;;;;;;4.90;0.60;;;19.20;99.90;;;;;;5039534;28;20192;-82
2021/05/30 09:11:41;;;;;;;0.77;0.30;;;19.00;99.90;;;;;;5036854;28;20225;-82
2021/05/30 09:14:15;;;;;;;0.60;0.60;;;19.30;99.90;;;;;;5027468;28;20217;-81
2021/05/30 09:17:02;;;;;;;0.53;0.53;;;18.80;99.90;;;;;;5029509;28;20187;-81
2021/05/30 09:19:48;;;;;;;1.33;0.53;;;18.70;99.90;;;;;;5035285;28;20561;-82
2021/05/30 09:22:20;;;;;;;0.73;0.40;;;19.00;99.90;;;;;;5033500;28;20209;-81
2021/05/30 09:24:52;;;;;;;0.83;0.60;;;19.50;99.90;;;;;;5033120;28;20190;-81
2021/05/30 09:27:18;;;;;;;0.23;0.23;;;19.70;99.90;;;;;;5034847;28;20178;-80
2021/05/30 09:29:44;;;;;;;1.10;1.07;;;19.50;99.90;;;;;;5037218;28;20197;-80
2021/05/30 09:32:10;;;;;;;0.43;0.40;;;19.90;99.90;;;;;;5034859;28;20194;-82
2021/05/30 09:34:37;;;;;;;0.20;0.20;;;20.00;99.90;;;;;;5032718;28;20197;-81
2021/05/30 09:37:04;;;;;;;4.53;0.50;;;20.30;99.90;;;;;;5036849;28;20233;-81
2021/05/30 09:39:41;;;;;;;0.20;0.20;;;20.20;99.90;;;;;;5034015;28;20182;-81
2021/05/30 09:42:26;;;;;;;1.10;0.50;;;20.40;99.90;;;;;;5030239;28;20175;-81
2021/05/30 09:44:58;;;;;;;0.40;0.40;;;19.80;99.90;;;;;;5047264;28;20182;-80
2021/05/30 09:47:34;;;;;;;0.60;0.53;;;19.70;99.90;;;;;;5035754;28;20245;-82
2021/05/30 09:49:59;;;;;;;0.77;0.40;;;19.80;99.90;;;;;;5032411;28;20669;-82
2021/05/30 09:52:42;;;;;;;0.30;0.30;;;19.80;99.90;;;;;;5026474;28;20265;-85
2021/05/30 09:55:16;;;;;;;0.73;0.60;;;20.10;99.90;;;;;;5029236;28;20252;-82
2021/05/30 09:57:44;;;;;;;0.60;0.60;;;20.30;99.90;;;;;;5038195;28;20259;-81
2021/05/30 10:00:30;;;;;;;1.70;0.70;;;20.10;99.90;;;;;;5029316;28;20649;-82
2021/05/30 10:02:55;;;;;;;0.77;0.60;;;20.40;99.90;;;;;;5027461;28;20675;-82
2021/05/30 10:05:21;;;;;;;0.50;0.50;;;20.10;99.90;;;;;;5029230;28;20179;-83
2021/05/30 10:07:52;;;;;;;0.27;0.27;;;20.20;99.90;;;;;;5042347;28;20202;-82
2021/05/30 10:10:18;;;;;;;0.67;0.50;;;20.00;99.90;;;;;;5030287;28;20267;-82
2021/05/30 10:12:44;;;;;;;0.40;0.40;;;19.70;99.90;;;;;;5033317;28;20222;-81
2021/05/30 10:15:10;;;;;;;0.63;0.63;;;19.90;99.90;;;;;;5034807;28;20552;-81
2021/05/30 10:17:38;;;;;;;0.20;0.20;;;20.50;99.90;;;;;;5033422;28;20185;-81
2021/05/30 10:20:07;;;;;;;1.30;0.60;;;20.40;99.90;;;;;;5038745;28;20674;-82
2021/05/30 10:22:34;;;;;;;0.60;0.60;;;20.40;99.90;;;;;;5036630;28;20556;-81
2021/05/30 10:24:59;;;;;;;0.20;0.20;;;20.40;99.90;;;;;;5025500;28;20640;-81
2021/05/30 10:27:29;;;;;;;0.90;0.43;;;20.20;99.90;;;;;;5032375;28;20363;-81
2021/05/30 10:30:13;;;;;;;0.30;0.30;;;20.60;99.90;;;;;;5037084;28;20673;-81
2021/05/30 10:32:41;;;;;;;1.63;0.73;;;20.20;99.90;;;;;;5034401;28;20182;-81
2021/05/30 10:35:20;;;;;;;1.80;0.80;;;20.70;99.90;;;;;;5029648;28;20177;-81
2021/05/30 10:37:49;;;;;;;0.60;0.60;;;21.00;99.90;;;;;;5032042;28;20185;-81
2021/05/30 10:40:20;;;;;;;1.10;0.90;;;20.70;99.90;;;;;;5024808;28;20210;-81
2021/05/30 10:43:09;;;;;;;0.93;0.93;;;20.60;99.90;;;;;;5038178;28;20178;-79
2021/05/30 10:45:55;;;;;;;0.27;0.27;;;21.00;99.90;;;;;;5025706;28;20202;-82
2021/05/30 10:48:21;;;;;;;0.60;0.60;;;21.40;99.90;;;;;;5029378;28;20540;-81
2021/05/30 10:53:43;;;;;;;0.43;0.33;;;20.40;99.90;;;;;;5024710;28;20249;-81
2021/05/30 10:56:37;;;;;;;1.90;1.13;;;20.20;99.90;;;;;;5058842;28;20265;-82
2021/05/30 10:59:15;;;;;;;0.53;0.50;;;19.90;99.90;;;;;;5036189;28;20743;-82
2021/05/30 11:01:47;;;;;;;0.63;0.40;;;20.40;99.90;;;;;;5031596;28;20209;-82
2021/05/30 11:04:25;;;;;;;0.90;0.53;;;20.50;99.90;;;;;;5050315;28;20186;-82
2021/05/30 11:06:57;;;;;;;1.17;0.87;;;20.20;99.90;;;;;;5033725;28;20189;-82
2021/05/30 11:09:24;;;;;;;0.37;0.37;;;19.60;99.90;;;;;;5032162;28;20210;-81
2021/05/30 11:12:26;;;;;;;0.77;0.63;;;19.90;99.90;;;;;;5033552;28;20218;-82
2021/05/30 11:15:14;;;;;;;0.73;0.63;;;20.20;99.90;;;;;;5045464;28;20213;-81
2021/05/30 11:18:06;;;;;;;0.30;0.30;;;20.10;99.90;;;;;;5040354;28;20178;-81
2021/05/30 11:20:39;;;;;;;0.60;0.60;;;20.90;99.90;;;;;;5034487;28;20257;-81
2021/05/30 11:23:09;;;;;;;0.77;0.57;;;21.30;99.90;;;;;;5035049;28;20186;-81
2021/05/30 11:25:38;;;;;;;0.80;0.80;;;21.10;99.90;;;;;;5043712;28;20637;-82
2021/05/30 11:28:06;;;;;;;0.60;0.60;;;21.00;99.90;;;;;;5033235;28;20178;-84
2021/05/30 11:30:49;;;;;;;0.30;0.30;;;20.90;99.90;;;;;;5028702;28;20229;-81
2021/05/30 11:33:21;;;;;;;0.20;0.20;;;21.30;99.90;;;;;;5033696;28;20199;-82
2021/05/30 11:35:49;;;;;;;0.80;0.80;;;21.60;99.90;;;;;;5033138;28;20189;-82
2021/05/30 11:38:15;;;;;;;0.27;0.27;;;21.30;99.90;;;;;;5033812;28;20244;-82
2021/05/30 11:40:41;;;;;;;0.47;0.47;;;21.30;99.90;;;;;;5032606;28;20611;-81
2021/05/30 11:43:14;;;;;;;0.60;0.60;;;21.40;99.90;;;;;;5038566;28;20182;-82
2021/05/30 11:45:43;;;;;;;0.53;0.50;;;21.60;99.90;;;;;;5032411;28;20174;-81
2021/05/30 11:48:17;;;;;;;0.97;0.90;;;22.00;99.90;;;;;;5024096;28;20189;-82
2021/05/30 11:50:53;;;;;;;0.80;0.80;;;21.90;99.90;;;;;;5023780;28;20577;-82
2021/05/30 11:53:34;;;;;;;0.67;0.67;;;21.70;99.90;;;;;;5029418;28;20215;-81
2021/05/30 11:56:01;;;;;;;0.57;0.57;;;22.10;99.90;;;;;;5030560;28;20187;-84
2021/05/30 11:58:28;;;;;;;0.60;0.60;;;22.20;99.90;;;;;;5032858;28;20265;-85
2021/05/30 12:00:58;;;;;;;1.13;0.63;;;21.70;99.90;;;;;;5042596;28;20202;-86
2021/05/30 12:03:25;;;;;;;0.40;0.40;;;22.60;99.90;;;;;;5031604;28;20193;-82
2021/05/30 12:06:02;;;;;;;0.60;0.60;;;22.40;99.90;;;;;;5048625;28;20213;-82
2021/05/30 12:08:28;;;;;;;0.27;0.27;;;22.30;99.90;;;;;;5034890;28;20522;-82
2021/05/30 12:11:00;;;;;;;0.43;0.33;;;22.20;99.90;;;;;;5032257;28;20218;-82
2021/05/30 12:13:37;;;;;;;0.63;0.53;;;21.40;99.90;;;;;;5032416;28;20694;-82
2021/05/30 12:16:17;;;;;;;2.43;0.60;;;20.90;99.90;;;;;;5025313;28;20669;-82
2021/05/30 12:18:53;;;;;;;0.40;0.40;;;20.80;99.90;;;;;;5036080;28;20197;-82
2021/05/30 12:21:20;;;;;;;0.43;0.40;;;21.20;99.90;;;;;;5032084;28;20202;-82
2021/05/30 12:23:46;;;;;;;0.93;0.73;;;21.40;99.90;;;;;;5034222;28;20583;-82
2021/05/30 12:26:12;;;;;;;0.33;0.33;;;21.60;99.90;;;;;;5032087;28;20182;-82
2021/05/30 12:28:40;;;;;;;0.70;0.70;;;21.80;99.90;;;;;;5032027;28;20677;-81
2021/05/30 12:31:12;;;;;;;0.43;0.37;;;21.90;99.90;;;;;;5032559;28;20260;-82
2021/05/30 12:33:57;;;;;;;0.40;0.40;;;22.30;99.90;;;;;;5031902;28;20226;-82
2021/05/30 12:36:42;;;;;;;0.40;0.40;;;22.20;99.90;;;;;;5033244;28;20182;-82
2021/05/30 12:39:24;;;;;;;0.67;0.67;;;22.70;99.90;;;;;;5019688;28;20182;-82
2021/05/30 12:42:09;;;;;;;2.23;0.90;;;22.40;99.90;;;;;;5032172;28;20277;-82
2021/05/30 12:44:42;;;;;;;0.83;0.60;;;21.50;99.90;;;;;;5030927;28;20194;-82
2021/05/30 12:47:11;;;;;;;0.33;0.30;;;22.00;99.90;;;;;;5026888;28;20206;-82
2021/05/30 12:49:38;;;;;;;0.47;0.47;;;21.90;99.90;;;;;;5041417;28;20273;-82
2021/05/30 12:52:16;;;;;;;0.50;0.50;;;22.00;99.90;;;;;;5029038;28;20213;-82
2021/05/30 12:54:43;;;;;;;1.13;0.80;;;22.30;99.90;;;;;;5031704;28;20220;-80
2021/05/30 12:57:13;;;;;;;3.40;1.70;;;22.00;99.90;;;;;;5025408;28;20277;-80
2021/05/30 12:59:48;;;;;;;0.50;0.50;;;22.00;99.90;;;;;;5030440;28;20735;-82